sensor_id;sensor_type;location;lat;lon;timestamp;P1;durP1;ratioP1;P2;durP2;ratioP2
8268;SDS011;4174;48.304;16.364;2023-12-20T00:04:44;31.33;;;14.40;;
8268;SDS011;4174;48.304;16.364;2023-12-20T00:10:47;32.43;;;13.90;;
8268;SDS011;4174;48.304;16.364;2023-12-20T00:16:51;31.37;;;13.73;;
8268;SDS011;4174;48.304;16.364;2023-12-20T00:22:56;33.63;;;14.30;;
8268;SDS011;4174;48.304;16.364;2023-12-20T00:28:59;35.67;;;14.55;;
8268;SDS011;4174;48.304;16.364;2023-12-20T00:35:02;31.93;;;14.33;;
8268;SDS011;4174;48.304;16.364;2023-12-20T00:41:07;30.40;;;13.93;;
8268;SDS011;4174;48.304;16.364;2023-12-20T00:47:11;30.90;;;13.60;;
8268;SDS011;4174;48.304;16.364;2023-12-20T00:53:14;34.13;;;16.45;;
8268;SDS011;4174;48.304;16.364;2023-12-20T00:59:19;36.17;;;18.60;;
8268;SDS011;4174;48.304;16.364;2023-12-20T01:05:23;43.63;;;24.00;;
8268;SDS011;4174;48.304;16.364;2023-12-20T01:11:27;44.10;;;22.83;;
8268;SDS011;4174;48.304;16.364;2023-12-20T01:17:30;43.53;;;24.52;;
8268;SDS011;4174;48.304;16.364;2023-12-20T01:23:34;39.40;;;23.90;;
8268;SDS011;4174;48.304;16.364;2023-12-20T01:29:38;40.00;;;24.37;;
8268;SDS011;4174;48.304;16.364;2023-12-20T01:35:42;42.78;;;25.08;;
8268;SDS011;4174;48.304;16.364;2023-12-20T01:41:45;48.77;;;27.23;;
8268;SDS011;4174;48.304;16.364;2023-12-20T01:47:50;53.87;;;29.77;;
8268;SDS011;4174;48.304;16.364;2023-12-20T01:53:54;49.38;;;27.98;;
8268;SDS011;4174;48.304;16.364;2023-12-20T01:59:56;47.47;;;26.80;;
8268;SDS011;4174;48.304;16.364;2023-12-20T02:05:59;51.53;;;27.35;;
8268;SDS011;4174;48.304;16.364;2023-12-20T02:12:03;45.80;;;27.80;;
8268;SDS011;4174;48.304;16.364;2023-12-20T02:18:06;49.03;;;26.65;;
8268;SDS011;4174;48.304;16.364;2023-12-20T02:24:10;44.77;;;27.33;;
8268;SDS011;4174;48.304;16.364;2023-12-20T02:30:14;44.70;;;27.00;;
8268;SDS011;4174;48.304;16.364;2023-12-20T02:36:16;43.95;;;26.10;;
8268;SDS011;4174;48.304;16.364;2023-12-20T02:42:20;44.73;;;26.33;;
8268;SDS011;4174;48.304;16.364;2023-12-20T02:48:24;39.90;;;24.77;;
8268;SDS011;4174;48.304;16.364;2023-12-20T02:54:28;37.00;;;21.58;;
8268;SDS011;4174;48.304;16.364;2023-12-20T03:00:32;39.30;;;23.65;;
8268;SDS011;4174;48.304;16.364;2023-12-20T03:06:35;39.43;;;23.67;;
8268;SDS011;4174;48.304;16.364;2023-12-20T03:12:38;36.33;;;22.20;;
8268;SDS011;4174;48.304;16.364;2023-12-20T03:18:43;38.60;;;24.10;;
8268;SDS011;4174;48.304;16.364;2023-12-20T03:24:47;40.00;;;24.13;;
8268;SDS011;4174;48.304;16.364;2023-12-20T03:30:51;37.92;;;24.17;;
8268;SDS011;4174;48.304;16.364;2023-12-20T03:36:56;37.60;;;22.60;;
8268;SDS011;4174;48.304;16.364;2023-12-20T03:43:01;35.72;;;22.05;;
8268;SDS011;4174;48.304;16.364;2023-12-20T03:49:04;37.28;;;22.83;;
8268;SDS011;4174;48.304;16.364;2023-12-20T03:55:08;35.67;;;23.07;;
8268;SDS011;4174;48.304;16.364;2023-12-20T04:01:12;37.92;;;22.95;;
8268;SDS011;4174;48.304;16.364;2023-12-20T04:07:15;35.33;;;22.10;;
8268;SDS011;4174;48.304;16.364;2023-12-20T04:13:19;35.60;;;22.27;;
8268;SDS011;4174;48.304;16.364;2023-12-20T04:19:24;35.40;;;22.10;;
8268;SDS011;4174;48.304;16.364;2023-12-20T04:25:27;35.53;;;22.70;;
8268;SDS011;4174;48.304;16.364;2023-12-20T04:31:31;37.72;;;23.02;;
8268;SDS011;4174;48.304;16.364;2023-12-20T04:37:35;37.67;;;23.93;;
8268;SDS011;4174;48.304;16.364;2023-12-20T04:43:38;40.57;;;24.43;;
8268;SDS011;4174;48.304;16.364;2023-12-20T04:49:42;36.53;;;23.95;;
8268;SDS011;4174;48.304;16.364;2023-12-20T04:55:46;39.97;;;24.80;;
8268;SDS011;4174;48.304;16.364;2023-12-20T05:01:50;41.90;;;25.40;;
8268;SDS011;4174;48.304;16.364;2023-12-20T05:07:53;38.60;;;23.20;;
8268;SDS011;4174;48.304;16.364;2023-12-20T05:13:57;36.03;;;21.52;;
8268;SDS011;4174;48.304;16.364;2023-12-20T05:20:01;36.97;;;21.77;;
8268;SDS011;4174;48.304;16.364;2023-12-20T05:26:06;34.28;;;22.13;;
8268;SDS011;4174;48.304;16.364;2023-12-20T05:32:10;34.47;;;19.40;;
8268;SDS011;4174;48.304;16.364;2023-12-20T05:38:14;32.80;;;18.37;;
8268;SDS011;4174;48.304;16.364;2023-12-20T05:44:18;28.80;;;15.07;;
8268;SDS011;4174;48.304;16.364;2023-12-20T05:50:21;30.70;;;13.10;;
8268;SDS011;4174;48.304;16.364;2023-12-20T05:56:26;28.20;;;12.02;;
8268;SDS011;4174;48.304;16.364;2023-12-20T06:02:30;28.52;;;12.70;;
8268;SDS011;4174;48.304;16.364;2023-12-20T06:08:33;27.30;;;12.10;;
8268;SDS011;4174;48.304;16.364;2023-12-20T06:14:36;26.33;;;11.33;;
8268;SDS011;4174;48.304;16.364;2023-12-20T06:20:39;17.37;;;7.17;;
8268;SDS011;4174;48.304;16.364;2023-12-20T06:26:43;8.95;;;3.40;;
8268;SDS011;4174;48.304;16.364;2023-12-20T06:32:47;8.03;;;3.00;;
8268;SDS011;4174;48.304;16.364;2023-12-20T06:38:51;8.30;;;3.20;;
8268;SDS011;4174;48.304;16.364;2023-12-20T06:44:55;7.65;;;2.90;;
8268;SDS011;4174;48.304;16.364;2023-12-20T06:50:59;8.37;;;2.60;;
8268;SDS011;4174;48.304;16.364;2023-12-20T06:57:02;6.53;;;2.40;;
8268;SDS011;4174;48.304;16.364;2023-12-20T07:03:07;6.43;;;2.37;;
8268;SDS011;4174;48.304;16.364;2023-12-20T07:09:09;6.43;;;2.30;;
8268;SDS011;4174;48.304;16.364;2023-12-20T07:15:13;7.27;;;2.63;;
8268;SDS011;4174;48.304;16.364;2023-12-20T07:21:16;7.73;;;2.50;;
8268;SDS011;4174;48.304;16.364;2023-12-20T07:27:24;7.82;;;2.83;;
8268;SDS011;4174;48.304;16.364;2023-12-20T07:33:27;7.77;;;2.90;;
8268;SDS011;4174;48.304;16.364;2023-12-20T07:39:30;10.27;;;3.67;;
8268;SDS011;4174;48.304;16.364;2023-12-20T07:45:34;10.50;;;3.50;;
8268;SDS011;4174;48.304;16.364;2023-12-20T07:51:38;10.33;;;3.53;;
8268;SDS011;4174;48.304;16.364;2023-12-20T07:57:42;9.52;;;3.37;;
8268;SDS011;4174;48.304;16.364;2023-12-20T08:03:45;9.50;;;3.30;;
8268;SDS011;4174;48.304;16.364;2023-12-20T08:09:48;8.23;;;3.05;;
8268;SDS011;4174;48.304;16.364;2023-12-20T08:15:52;7.70;;;2.70;;
8268;SDS011;4174;48.304;16.364;2023-12-20T08:21:55;7.80;;;2.70;;
8268;SDS011;4174;48.304;16.364;2023-12-20T08:27:58;8.33;;;2.67;;
8268;SDS011;4174;48.304;16.364;2023-12-20T08:34:02;6.60;;;2.40;;
8268;SDS011;4174;48.304;16.364;2023-12-20T08:40:06;7.45;;;2.70;;
8268;SDS011;4174;48.304;16.364;2023-12-20T08:46:11;8.20;;;2.50;;
8268;SDS011;4174;48.304;16.364;2023-12-20T08:52:14;7.80;;;2.50;;
8268;SDS011;4174;48.304;16.364;2023-12-20T08:58:18;7.28;;;2.62;;
8268;SDS011;4174;48.304;16.364;2023-12-20T09:04:21;6.20;;;2.13;;
8268;SDS011;4174;48.304;16.364;2023-12-20T09:10:25;6.93;;;2.07;;
8268;SDS011;4174;48.304;16.364;2023-12-20T09:16:28;5.80;;;1.90;;
8268;SDS011;4174;48.304;16.364;2023-12-20T09:22:31;6.03;;;1.93;;
8268;SDS011;4174;48.304;16.364;2023-12-20T09:28:35;6.20;;;2.00;;
8268;SDS011;4174;48.304;16.364;2023-12-20T09:34:39;5.47;;;1.70;;
8268;SDS011;4174;48.304;16.364;2023-12-20T09:40:42;6.57;;;2.27;;
8268;SDS011;4174;48.304;16.364;2023-12-20T09:46:47;5.90;;;1.90;;
8268;SDS011;4174;48.304;16.364;2023-12-20T09:52:50;6.43;;;2.00;;
8268;SDS011;4174;48.304;16.364;2023-12-20T09:58:52;5.62;;;1.90;;
8268;SDS011;4174;48.304;16.364;2023-12-20T10:04:55;5.55;;;1.75;;
8268;SDS011;4174;48.304;16.364;2023-12-20T10:10:59;4.93;;;1.53;;
8268;SDS011;4174;48.304;16.364;2023-12-20T10:17:02;5.87;;;1.90;;
8268;SDS011;4174;48.304;16.364;2023-12-20T10:23:05;4.55;;;1.35;;
8268;SDS011;4174;48.304;16.364;2023-12-20T10:29:10;4.65;;;1.40;;
8268;SDS011;4174;48.304;16.364;2023-12-20T10:35:14;5.03;;;1.50;;
8268;SDS011;4174;48.304;16.364;2023-12-20T10:41:19;5.82;;;1.52;;
8268;SDS011;4174;48.304;16.364;2023-12-20T10:47:21;5.15;;;1.70;;
8268;SDS011;4174;48.304;16.364;2023-12-20T10:53:24;6.47;;;1.90;;
8268;SDS011;4174;48.304;16.364;2023-12-20T10:59:28;5.78;;;2.00;;
8268;SDS011;4174;48.304;16.364;2023-12-20T11:05:38;5.70;;;2.00;;
8268;SDS011;4174;48.304;16.364;2023-12-20T11:11:51;5.65;;;1.98;;
8268;SDS011;4174;48.304;16.364;2023-12-20T11:17:56;6.55;;;2.17;;
8268;SDS011;4174;48.304;16.364;2023-12-20T11:23:59;5.45;;;2.10;;
8268;SDS011;4174;48.304;16.364;2023-12-20T11:30:02;6.22;;;2.12;;
8268;SDS011;4174;48.304;16.364;2023-12-20T11:36:03;6.53;;;2.20;;
8268;SDS011;4174;48.304;16.364;2023-12-20T11:42:13;5.22;;;2.12;;
8268;SDS011;4174;48.304;16.364;2023-12-20T11:48:16;5.72;;;2.40;;
8268;SDS011;4174;48.304;16.364;2023-12-20T11:54:19;5.50;;;1.98;;
8268;SDS011;4174;48.304;16.364;2023-12-20T12:00:23;5.50;;;2.00;;
8268;SDS011;4174;48.304;16.364;2023-12-20T12:06:25;5.87;;;2.20;;
8268;SDS011;4174;48.304;16.364;2023-12-20T12:12:30;5.60;;;1.75;;
8268;SDS011;4174;48.304;16.364;2023-12-20T12:18:33;5.20;;;1.90;;
8268;SDS011;4174;48.304;16.364;2023-12-20T12:24:36;5.93;;;2.00;;
8268;SDS011;4174;48.304;16.364;2023-12-20T12:30:39;6.12;;;1.80;;
8268;SDS011;4174;48.304;16.364;2023-12-20T12:36:43;4.67;;;1.50;;
8268;SDS011;4174;48.304;16.364;2023-12-20T12:42:45;5.43;;;1.70;;
8268;SDS011;4174;48.304;16.364;2023-12-20T12:48:49;4.70;;;1.50;;
8268;SDS011;4174;48.304;16.364;2023-12-20T12:54:54;4.60;;;1.50;;
8268;SDS011;4174;48.304;16.364;2023-12-20T13:00:58;5.60;;;1.77;;
8268;SDS011;4174;48.304;16.364;2023-12-20T13:07:03;7.97;;;1.80;;
8268;SDS011;4174;48.304;16.364;2023-12-20T13:13:07;6.62;;;2.45;;
8268;SDS011;4174;48.304;16.364;2023-12-20T13:19:10;5.90;;;1.70;;
8268;SDS011;4174;48.304;16.364;2023-12-20T13:25:14;4.60;;;1.50;;
8268;SDS011;4174;48.304;16.364;2023-12-20T13:31:17;5.27;;;1.50;;
8268;SDS011;4174;48.304;16.364;2023-12-20T13:37:21;4.50;;;1.40;;
8268;SDS011;4174;48.304;16.364;2023-12-20T13:43:25;4.30;;;1.40;;
8268;SDS011;4174;48.304;16.364;2023-12-20T13:49:29;4.90;;;1.60;;
8268;SDS011;4174;48.304;16.364;2023-12-20T13:55:33;4.65;;;1.48;;
8268;SDS011;4174;48.304;16.364;2023-12-20T14:01:37;4.93;;;1.60;;
8268;SDS011;4174;48.304;16.364;2023-12-20T14:07:40;4.73;;;1.60;;
8268;SDS011;4174;48.304;16.364;2023-12-20T14:13:44;5.10;;;1.53;;
8268;SDS011;4174;48.304;16.364;2023-12-20T14:19:46;5.60;;;1.60;;
8268;SDS011;4174;48.304;16.364;2023-12-20T14:25:50;4.60;;;1.40;;
8268;SDS011;4174;48.304;16.364;2023-12-20T14:31:53;4.47;;;1.50;;
8268;SDS011;4174;48.304;16.364;2023-12-20T14:37:57;4.78;;;1.30;;
8268;SDS011;4174;48.304;16.364;2023-12-20T14:44:01;4.77;;;1.50;;
8268;SDS011;4174;48.304;16.364;2023-12-20T14:50:05;4.43;;;1.30;;
8268;SDS011;4174;48.304;16.364;2023-12-20T14:56:09;4.57;;;1.20;;
8268;SDS011;4174;48.304;16.364;2023-12-20T15:02:13;4.32;;;1.20;;
8268;SDS011;4174;48.304;16.364;2023-12-20T15:08:16;4.50;;;1.30;;
8268;SDS011;4174;48.304;16.364;2023-12-20T15:14:20;4.70;;;1.50;;
8268;SDS011;4174;48.304;16.364;2023-12-20T15:20:24;5.10;;;1.30;;
8268;SDS011;4174;48.304;16.364;2023-12-20T15:26:27;4.07;;;1.20;;
8268;SDS011;4174;48.304;16.364;2023-12-20T15:32:31;5.13;;;1.40;;
8268;SDS011;4174;48.304;16.364;2023-12-20T15:38:34;5.20;;;1.47;;
8268;SDS011;4174;48.304;16.364;2023-12-20T15:44:38;5.30;;;1.73;;
8268;SDS011;4174;48.304;16.364;2023-12-20T15:50:41;6.35;;;1.90;;
8268;SDS011;4174;48.304;16.364;2023-12-20T15:56:47;5.63;;;1.60;;
8268;SDS011;4174;48.304;16.364;2023-12-20T16:02:51;5.50;;;1.70;;
8268;SDS011;4174;48.304;16.364;2023-12-20T16:08:54;4.73;;;1.50;;
8268;SDS011;4174;48.304;16.364;2023-12-20T16:14:57;4.50;;;1.30;;
8268;SDS011;4174;48.304;16.364;2023-12-20T16:21:01;4.50;;;1.40;;
8268;SDS011;4174;48.304;16.364;2023-12-20T16:27:05;4.90;;;1.50;;
8268;SDS011;4174;48.304;16.364;2023-12-20T16:33:08;4.93;;;1.33;;
8268;SDS011;4174;48.304;16.364;2023-12-20T16:39:11;6.30;;;1.50;;
8268;SDS011;4174;48.304;16.364;2023-12-20T16:45:17;4.80;;;1.60;;
8268;SDS011;4174;48.304;16.364;2023-12-20T16:51:21;4.93;;;1.70;;
8268;SDS011;4174;48.304;16.364;2023-12-20T16:57:24;4.90;;;1.50;;
8268;SDS011;4174;48.304;16.364;2023-12-20T17:03:29;4.33;;;1.20;;
8268;SDS011;4174;48.304;16.364;2023-12-20T17:09:32;4.70;;;1.20;;
8268;SDS011;4174;48.304;16.364;2023-12-20T17:15:36;4.68;;;1.20;;
8268;SDS011;4174;48.304;16.364;2023-12-20T17:21:40;4.27;;;1.10;;
8268;SDS011;4174;48.304;16.364;2023-12-20T17:27:43;4.00;;;1.13;;
8268;SDS011;4174;48.304;16.364;2023-12-20T17:33:47;5.00;;;1.20;;
8268;SDS011;4174;48.304;16.364;2023-12-20T17:39:51;5.30;;;1.00;;
8268;SDS011;4174;48.304;16.364;2023-12-20T17:45:54;5.00;;;1.20;;
8268;SDS011;4174;48.304;16.364;2023-12-20T17:51:58;4.60;;;1.10;;
8268;SDS011;4174;48.304;16.364;2023-12-20T17:58:01;4.67;;;1.00;;
8268;SDS011;4174;48.304;16.364;2023-12-20T18:04:05;3.85;;;0.80;;
8268;SDS011;4174;48.304;16.364;2023-12-20T18:16:24;5.05;;;1.10;;
8268;SDS011;4174;48.304;16.364;2023-12-20T18:22:29;4.70;;;1.20;;
8268;SDS011;4174;48.304;16.364;2023-12-20T18:28:33;4.75;;;1.30;;
8268;SDS011;4174;48.304;16.364;2023-12-20T18:34:37;5.55;;;1.60;;
8268;SDS011;4174;48.304;16.364;2023-12-20T18:40:41;6.67;;;1.60;;
8268;SDS011;4174;48.304;16.364;2023-12-20T18:46:45;5.87;;;1.70;;
8268;SDS011;4174;48.304;16.364;2023-12-20T18:52:49;5.10;;;1.30;;
8268;SDS011;4174;48.304;16.364;2023-12-20T18:58:55;8.30;;;1.90;;
8268;SDS011;4174;48.304;16.364;2023-12-20T19:04:59;6.93;;;1.87;;
8268;SDS011;4174;48.304;16.364;2023-12-20T19:11:03;5.27;;;1.50;;
8268;SDS011;4174;48.304;16.364;2023-12-20T19:17:07;5.25;;;1.50;;
8268;SDS011;4174;48.304;16.364;2023-12-20T19:23:10;5.27;;;1.40;;
8268;SDS011;4174;48.304;16.364;2023-12-20T19:29:14;5.00;;;1.27;;
8268;SDS011;4174;48.304;16.364;2023-12-20T19:35:18;5.20;;;1.20;;
8268;SDS011;4174;48.304;16.364;2023-12-20T19:41:21;5.37;;;1.40;;
8268;SDS011;4174;48.304;16.364;2023-12-20T19:47:26;4.50;;;1.20;;
8268;SDS011;4174;48.304;16.364;2023-12-20T19:53:29;4.85;;;1.20;;
8268;SDS011;4174;48.304;16.364;2023-12-20T19:59:33;4.87;;;1.43;;
8268;SDS011;4174;48.304;16.364;2023-12-20T20:05:36;5.05;;;1.40;;
8268;SDS011;4174;48.304;16.364;2023-12-20T20:11:39;5.27;;;1.43;;
8268;SDS011;4174;48.304;16.364;2023-12-20T20:17:43;5.83;;;1.53;;
8268;SDS011;4174;48.304;16.364;2023-12-20T20:23:47;6.68;;;1.83;;
8268;SDS011;4174;48.304;16.364;2023-12-20T20:29:51;6.10;;;2.00;;
8268;SDS011;4174;48.304;16.364;2023-12-20T20:35:54;6.47;;;2.17;;
8268;SDS011;4174;48.304;16.364;2023-12-20T20:41:59;6.07;;;2.07;;
8268;SDS011;4174;48.304;16.364;2023-12-20T20:48:01;6.83;;;2.13;;
8268;SDS011;4174;48.304;16.364;2023-12-20T20:54:06;5.50;;;1.77;;
8268;SDS011;4174;48.304;16.364;2023-12-20T21:00:11;6.60;;;2.13;;
8268;SDS011;4174;48.304;16.364;2023-12-20T21:06:15;7.27;;;2.20;;
8268;SDS011;4174;48.304;16.364;2023-12-20T21:12:19;5.67;;;1.83;;
8268;SDS011;4174;48.304;16.364;2023-12-20T21:18:23;7.50;;;1.90;;
8268;SDS011;4174;48.304;16.364;2023-12-20T21:24:27;6.43;;;1.62;;
8268;SDS011;4174;48.304;16.364;2023-12-20T21:30:31;5.00;;;1.60;;
8268;SDS011;4174;48.304;16.364;2023-12-20T21:36:34;5.53;;;1.60;;
8268;SDS011;4174;48.304;16.364;2023-12-20T21:42:38;4.43;;;1.40;;
8268;SDS011;4174;48.304;16.364;2023-12-20T21:48:41;6.83;;;1.40;;
8268;SDS011;4174;48.304;16.364;2023-12-20T21:54:45;5.12;;;1.20;;
8268;SDS011;4174;48.304;16.364;2023-12-20T22:00:48;6.20;;;1.40;;
8268;SDS011;4174;48.304;16.364;2023-12-20T22:06:52;5.80;;;1.30;;
8268;SDS011;4174;48.304;16.364;2023-12-20T22:12:55;5.93;;;1.20;;
8268;SDS011;4174;48.304;16.364;2023-12-20T22:18:59;4.37;;;1.03;;
8268;SDS011;4174;48.304;16.364;2023-12-20T22:25:02;5.03;;;1.13;;
8268;SDS011;4174;48.304;16.364;2023-12-20T22:31:06;5.55;;;1.30;;
8268;SDS011;4174;48.304;16.364;2023-12-20T22:37:09;4.50;;;1.20;;
8268;SDS011;4174;48.304;16.364;2023-12-20T22:43:14;5.73;;;1.30;;
8268;SDS011;4174;48.304;16.364;2023-12-20T22:49:18;6.40;;;1.30;;
8268;SDS011;4174;48.304;16.364;2023-12-20T22:55:20;5.67;;;1.30;;
8268;SDS011;4174;48.304;16.364;2023-12-20T23:01:24;5.07;;;1.27;;
8268;SDS011;4174;48.304;16.364;2023-12-20T23:07:28;5.13;;;1.20;;
8268;SDS011;4174;48.304;16.364;2023-12-20T23:13:31;4.40;;;1.20;;
8268;SDS011;4174;48.304;16.364;2023-12-20T23:19:35;4.97;;;1.23;;
8268;SDS011;4174;48.304;16.364;2023-12-20T23:25:38;4.70;;;1.30;;
8268;SDS011;4174;48.304;16.364;2023-12-20T23:31:42;5.95;;;1.30;;
8268;SDS011;4174;48.304;16.364;2023-12-20T23:37:46;4.43;;;1.20;;
8268;SDS011;4174;48.304;16.364;2023-12-20T23:43:50;5.27;;;1.30;;
8268;SDS011;4174;48.304;16.364;2023-12-20T23:49:54;4.53;;;1.20;;
8268;SDS011;4174;48.304;16.364;2023-12-20T23:55:58;3.97;;;1.00;;
